sensor_id;sensor_type;location;lat;lon;timestamp;pressure;altitude;pressure_sealevel;temperature;humidity
63111;BME280;49201;53.426;10.300;2023-03-23T00:01:28;100366.72;;;11.44;100.00
63111;BME280;49201;53.426;10.300;2023-03-23T00:03:58;100367.50;;;11.37;100.00
63111;BME280;49201;53.426;10.300;2023-03-23T00:06:26;100373.47;;;11.34;100.00
63111;BME280;49201;53.426;10.300;2023-03-23T00:08:53;100370.00;;;11.26;100.00
63111;BME280;49201;53.426;10.300;2023-03-23T00:11:26;100373.38;;;11.21;100.00
63111;BME280;49201;53.426;10.300;2023-03-23T00:13:55;100370.75;;;11.18;100.00
63111;BME280;49201;53.426;10.300;2023-03-23T00:16:24;100371.59;;;11.15;100.00
63111;BME280;49201;53.426;10.300;2023-03-23T00:19:03;100370.69;;;11.10;100.00
63111;BME280;49201;53.426;10.300;2023-03-23T00:21:32;100363.78;;;11.05;100.00
63111;BME280;49201;53.426;10.300;2023-03-23T00:26:32;100362.00;;;10.95;100.00
63111;BME280;49201;53.426;10.300;2023-03-23T00:29:06;100360.25;;;10.92;100.00
63111;BME280;49201;53.426;10.300;2023-03-23T00:31:32;100372.16;;;10.86;100.00
63111;BME280;49201;53.426;10.300;2023-03-23T00:34:03;100359.34;;;10.83;100.00
63111;BME280;49201;53.426;10.300;2023-03-23T00:36:33;100364.44;;;10.81;100.00
63111;BME280;49201;53.426;10.300;2023-03-23T00:39:03;100360.97;;;10.79;100.00
63111;BME280;49201;53.426;10.300;2023-03-23T00:41:29;100355.88;;;10.78;100.00
63111;BME280;49201;53.426;10.300;2023-03-23T00:43:58;100364.34;;;10.74;100.00
63111;BME280;49201;53.426;10.300;2023-03-23T00:46:27;100355.75;;;10.70;100.00
63111;BME280;49201;53.426;10.300;2023-03-23T00:48:53;100365.13;;;10.68;100.00
63111;BME280;49201;53.426;10.300;2023-03-23T00:51:20;100355.75;;;10.67;100.00
63111;BME280;49201;53.426;10.300;2023-03-23T00:53:46;100359.16;;;10.66;100.00
63111;BME280;49201;53.426;10.300;2023-03-23T00:56:12;100361.69;;;10.65;100.00
63111;BME280;49201;53.426;10.300;2023-03-23T00:58:38;100345.44;;;10.64;100.00
63111;BME280;49201;53.426;10.300;2023-03-23T01:01:04;100346.28;;;10.62;100.00
63111;BME280;49201;53.426;10.300;2023-03-23T01:03:30;100346.25;;;10.60;100.00
63111;BME280;49201;53.426;10.300;2023-03-23T01:05:58;100344.53;;;10.58;100.00
63111;BME280;49201;53.426;10.300;2023-03-23T01:08:28;100347.06;;;10.56;100.00
63111;BME280;49201;53.426;10.300;2023-03-23T01:11:05;100304.41;;;10.55;100.00
63111;BME280;49201;53.426;10.300;2023-03-23T01:13:31;100296.72;;;10.55;100.00
63111;BME280;49201;53.426;10.300;2023-03-23T01:15:57;100294.13;;;10.54;100.00
63111;BME280;49201;53.426;10.300;2023-03-23T01:18:22;100318.88;;;10.53;100.00
63111;BME280;49201;53.426;10.300;2023-03-23T01:20:48;100304.34;;;10.51;100.00
63111;BME280;49201;53.426;10.300;2023-03-23T01:23:13;100297.50;;;10.48;100.00
63111;BME280;49201;53.426;10.300;2023-03-23T01:25:38;100287.28;;;10.48;100.00
63111;BME280;49201;53.426;10.300;2023-03-23T01:28:04;100280.41;;;10.46;100.00
63111;BME280;49201;53.426;10.300;2023-03-23T01:30:30;100268.44;;;10.43;100.00
63111;BME280;49201;53.426;10.300;2023-03-23T01:32:56;100256.50;;;10.44;100.00
63111;BME280;49201;53.426;10.300;2023-03-23T01:35:22;100257.31;;;10.41;100.00
63111;BME280;49201;53.426;10.300;2023-03-23T01:37:48;100258.22;;;10.43;100.00
63111;BME280;49201;53.426;10.300;2023-03-23T01:40:14;100257.34;;;10.43;100.00
63111;BME280;49201;53.426;10.300;2023-03-23T01:42:41;100258.22;;;10.43;100.00
63111;BME280;49201;53.426;10.300;2023-03-23T01:45:26;100254.81;;;10.44;100.00
63111;BME280;49201;53.426;10.300;2023-03-23T01:47:57;100254.81;;;10.44;100.00
63111;BME280;49201;53.426;10.300;2023-03-23T01:50:26;100240.28;;;10.43;100.00
63111;BME280;49201;53.426;10.300;2023-03-23T01:52:55;100237.72;;;10.43;100.00
63111;BME280;49201;53.426;10.300;2023-03-23T01:55:23;100248.78;;;10.42;100.00
63111;BME280;49201;53.426;10.300;2023-03-23T01:57:52;100265.00;;;10.41;100.00
63111;BME280;49201;53.426;10.300;2023-03-23T02:00:19;100265.00;;;10.41;100.00
63111;BME280;49201;53.426;10.300;2023-03-23T02:02:50;100253.03;;;10.39;100.00
63111;BME280;49201;53.426;10.300;2023-03-23T02:05:26;100240.25;;;10.40;100.00
63111;BME280;49201;53.426;10.300;2023-03-23T02:07:57;100242.84;;;10.43;100.00
63111;BME280;49201;53.426;10.300;2023-03-23T02:10:24;100235.13;;;10.40;100.00
63111;BME280;49201;53.426;10.300;2023-03-23T02:12:50;100230.03;;;10.42;100.00
63111;BME280;49201;53.426;10.300;2023-03-23T02:15:16;100229.16;;;10.41;100.00
63111;BME280;49201;53.426;10.300;2023-03-23T02:17:50;100233.44;;;10.42;100.00
63111;BME280;49201;53.426;10.300;2023-03-23T02:26:00;100220.69;;;10.45;100.00
63111;BME280;49201;53.426;10.300;2023-03-23T02:34:15;100225.81;;;10.47;100.00
63111;BME280;49201;53.426;10.300;2023-03-23T02:36:50;100229.22;;;10.47;100.00
63111;BME280;49201;53.426;10.300;2023-03-23T02:39:22;100219.81;;;10.46;100.00
63111;BME280;49201;53.426;10.300;2023-03-23T02:41:52;100226.66;;;10.47;100.00
63111;BME280;49201;53.426;10.300;2023-03-23T02:44:22;100225.81;;;10.47;100.00
63111;BME280;49201;53.426;10.300;2023-03-23T02:46:48;100216.41;;;10.47;100.00
63111;BME280;49201;53.426;10.300;2023-03-23T02:49:16;100217.28;;;10.46;100.00
63111;BME280;49201;53.426;10.300;2023-03-23T02:51:45;100198.50;;;10.46;100.00
63111;BME280;49201;53.426;10.300;2023-03-23T02:54:12;100198.50;;;10.44;100.00
63111;BME280;49201;53.426;10.300;2023-03-23T02:56:40;100207.00;;;10.45;100.00
63111;BME280;49201;53.426;10.300;2023-03-23T02:59:12;100197.63;;;10.44;100.00
63111;BME280;49201;53.426;10.300;2023-03-23T03:04:06;100195.94;;;10.47;100.00
63111;BME280;49201;53.426;10.300;2023-03-23T03:06:47;100191.69;;;10.48;100.00
63111;BME280;49201;53.426;10.300;2023-03-23T03:09:43;100176.34;;;10.48;100.00
63111;BME280;49201;53.426;10.300;2023-03-23T03:15:28;100174.66;;;10.51;100.00
63111;BME280;49201;53.426;10.300;2023-03-23T03:18:18;100177.22;;;10.50;100.00
63111;BME280;49201;53.426;10.300;2023-03-23T03:20:57;100180.66;;;10.52;100.00
63111;BME280;49201;53.426;10.300;2023-03-23T03:23:27;100181.50;;;10.52;100.00
63111;BME280;49201;53.426;10.300;2023-03-23T03:25:57;100167.88;;;10.53;100.00
63111;BME280;49201;53.426;10.300;2023-03-23T03:28:34;100161.06;;;10.57;100.00
63111;BME280;49201;53.426;10.300;2023-03-23T03:31:03;100154.22;;;10.56;100.00
63111;BME280;49201;53.426;10.300;2023-03-23T03:33:30;100151.66;;;10.56;100.00
63111;BME280;49201;53.426;10.300;2023-03-23T03:36:00;100130.34;;;10.57;100.00
63111;BME280;49201;53.426;10.300;2023-03-23T03:38:27;100136.34;;;10.57;100.00
63111;BME280;49201;53.426;10.300;2023-03-23T03:40:54;100150.84;;;10.58;100.00
63111;BME280;49201;53.426;10.300;2023-03-23T03:43:21;100155.97;;;10.60;100.00
63111;BME280;49201;53.426;10.300;2023-03-23T03:45:47;100136.34;;;10.60;100.00
63111;BME280;49201;53.426;10.300;2023-03-23T03:48:12;100129.53;;;10.62;100.00
63111;BME280;49201;53.426;10.300;2023-03-23T03:50:38;100136.38;;;10.63;100.00
63111;BME280;49201;53.426;10.300;2023-03-23T03:53:05;100128.69;;;10.65;100.00
63111;BME280;49201;53.426;10.300;2023-03-23T03:55:31;100131.25;;;10.65;100.00
63111;BME280;49201;53.426;10.300;2023-03-23T03:58:02;100119.31;;;10.65;100.00
63111;BME280;49201;53.426;10.300;2023-03-23T04:00:49;100125.28;;;10.64;100.00
63111;BME280;49201;53.426;10.300;2023-03-23T04:03:19;100126.97;;;10.65;100.00
63111;BME280;49201;53.426;10.300;2023-03-23T04:06:03;100106.50;;;10.65;100.00
63111;BME280;49201;53.426;10.300;2023-03-23T04:08:29;100094.56;;;10.66;100.00
63111;BME280;49201;53.426;10.300;2023-03-23T04:10:55;100106.50;;;10.67;100.00
63111;BME280;49201;53.426;10.300;2023-03-23T04:13:22;100104.81;;;10.66;100.00
63111;BME280;49201;53.426;10.300;2023-03-23T04:16:14;100103.94;;;10.67;100.00
63111;BME280;49201;53.426;10.300;2023-03-23T04:18:42;100113.34;;;10.69;100.00
63111;BME280;49201;53.426;10.300;2023-03-23T04:21:08;100099.69;;;10.70;100.00
63111;BME280;49201;53.426;10.300;2023-03-23T04:23:35;100104.00;;;10.71;100.00
63111;BME280;49201;53.426;10.300;2023-03-23T04:26:03;100113.41;;;10.74;100.00
63111;BME280;49201;53.426;10.300;2023-03-23T04:28:39;100115.16;;;10.78;100.00
63111;BME280;49201;53.426;10.300;2023-03-23T04:31:29;100116.00;;;10.80;100.00
63111;BME280;49201;53.426;10.300;2023-03-23T04:34:05;100112.59;;;10.82;100.00
63111;BME280;49201;53.426;10.300;2023-03-23T04:36:37;100122.00;;;10.83;100.00
63111;BME280;49201;53.426;10.300;2023-03-23T04:39:10;100127.13;;;10.85;100.00
63111;BME280;49201;53.426;10.300;2023-03-23T04:41:37;100123.72;;;10.86;100.00
63111;BME280;49201;53.426;10.300;2023-03-23T04:44:13;100117.78;;;10.87;100.00
63111;BME280;49201;53.426;10.300;2023-03-23T04:46:45;100125.44;;;10.90;100.00
63111;BME280;49201;53.426;10.300;2023-03-23T04:49:16;100129.72;;;10.91;100.00
63111;BME280;49201;53.426;10.300;2023-03-23T04:51:47;100134.03;;;10.92;100.00
63111;BME280;49201;53.426;10.300;2023-03-23T04:54:33;100134.88;;;10.94;100.00
63111;BME280;49201;53.426;10.300;2023-03-23T04:57:00;100134.03;;;10.98;100.00
63111;BME280;49201;53.426;10.300;2023-03-23T04:59:26;100128.94;;;10.98;100.00
63111;BME280;49201;53.426;10.300;2023-03-23T05:02:14;100128.94;;;10.99;100.00
63111;BME280;49201;53.426;10.300;2023-03-23T05:04:43;100127.25;;;11.03;100.00
63111;BME280;49201;53.426;10.300;2023-03-23T05:07:12;100124.69;;;11.07;100.00
63111;BME280;49201;53.426;10.300;2023-03-23T05:09:47;100122.16;;;11.06;100.00
63111;BME280;49201;53.426;10.300;2023-03-23T05:12:13;100106.81;;;11.13;100.00
63111;BME280;49201;53.426;10.300;2023-03-23T05:14:50;100103.41;;;11.16;100.00
63111;BME280;49201;53.426;10.300;2023-03-23T05:17:18;100113.63;;;11.13;100.00
63111;BME280;49201;53.426;10.300;2023-03-23T05:19:46;100110.22;;;11.15;100.00
63111;BME280;49201;53.426;10.300;2023-03-23T05:22:30;100101.69;;;11.13;100.00
63111;BME280;49201;53.426;10.300;2023-03-23T05:25:00;100117.06;;;11.13;100.00
63111;BME280;49201;53.426;10.300;2023-03-23T05:27:29;100107.66;;;11.11;100.00
63111;BME280;49201;53.426;10.300;2023-03-23T05:29:59;100096.56;;;11.13;100.00
63111;BME280;49201;53.426;10.300;2023-03-23T05:32:27;100099.13;;;11.12;100.00
63111;BME280;49201;53.426;10.300;2023-03-23T05:35:04;100099.97;;;11.11;100.00
63111;BME280;49201;53.426;10.300;2023-03-23T05:37:30;100101.69;;;11.12;100.00
63111;BME280;49201;53.426;10.300;2023-03-23T05:40:06;100105.09;;;11.14;100.00
63111;BME280;49201;53.426;10.300;2023-03-23T05:42:39;100112.78;;;11.12;100.00
63111;BME280;49201;53.426;10.300;2023-03-23T05:45:12;100114.50;;;11.12;100.00
63111;BME280;49201;53.426;10.300;2023-03-23T05:47:39;100111.06;;;11.13;100.00
63111;BME280;49201;53.426;10.300;2023-03-23T05:50:09;100117.91;;;11.15;100.00
63111;BME280;49201;53.426;10.300;2023-03-23T05:52:37;100114.50;;;11.15;100.00
63111;BME280;49201;53.426;10.300;2023-03-23T05:55:07;100106.81;;;11.16;100.00
63111;BME280;49201;53.426;10.300;2023-03-23T05:57:34;100120.47;;;11.15;100.00
63111;BME280;49201;53.426;10.300;2023-03-23T06:00:04;100124.75;;;11.16;100.00
63111;BME280;49201;53.426;10.300;2023-03-23T06:02:44;100114.50;;;11.18;100.00
63111;BME280;49201;53.426;10.300;2023-03-23T06:05:15;100115.41;;;11.21;100.00
63111;BME280;49201;53.426;10.300;2023-03-23T06:07:44;100122.22;;;11.22;100.00
63111;BME280;49201;53.426;10.300;2023-03-23T06:10:09;100117.94;;;11.23;100.00
63111;BME280;49201;53.426;10.300;2023-03-23T06:12:41;100116.25;;;11.23;100.00
63111;BME280;49201;53.426;10.300;2023-03-23T06:15:18;100115.44;;;11.27;100.00
63111;BME280;49201;53.426;10.300;2023-03-23T06:17:59;100098.34;;;11.29;100.00
63111;BME280;49201;53.426;10.300;2023-03-23T06:20:31;100096.63;;;11.27;100.00
63111;BME280;49201;53.426;10.300;2023-03-23T06:23:01;100112.00;;;11.27;100.00
63111;BME280;49201;53.426;10.300;2023-03-23T06:25:30;100106.03;;;11.29;100.00
63111;BME280;49201;53.426;10.300;2023-03-23T06:27:57;100102.63;;;11.32;100.00
63111;BME280;49201;53.426;10.300;2023-03-23T06:30:23;100098.34;;;11.31;100.00
63111;BME280;49201;53.426;10.300;2023-03-23T06:32:49;100112.88;;;11.32;100.00
63111;BME280;49201;53.426;10.300;2023-03-23T06:35:20;100123.13;;;11.33;100.00
63111;BME280;49201;53.426;10.300;2023-03-23T06:37:52;100116.31;;;11.35;100.00
63111;BME280;49201;53.426;10.300;2023-03-23T06:40:29;100117.16;;;11.34;100.00
63111;BME280;49201;53.426;10.300;2023-03-23T06:42:58;100125.66;;;11.30;100.00
63111;BME280;49201;53.426;10.300;2023-03-23T06:45:43;100121.38;;;11.28;100.00
63111;BME280;49201;53.426;10.300;2023-03-23T06:48:27;100130.78;;;11.26;100.00
63111;BME280;49201;53.426;10.300;2023-03-23T06:50:53;100125.66;;;11.24;100.00
63111;BME280;49201;53.426;10.300;2023-03-23T06:53:20;100118.81;;;11.25;100.00
63111;BME280;49201;53.426;10.300;2023-03-23T06:55:46;100125.69;;;11.27;100.00
63111;BME280;49201;53.426;10.300;2023-03-23T06:58:12;100121.41;;;11.29;100.00
63111;BME280;49201;53.426;10.300;2023-03-23T07:00:38;100121.44;;;11.34;100.00
63111;BME280;49201;53.426;10.300;2023-03-23T07:03:04;100126.59;;;11.41;100.00
63111;BME280;49201;53.426;10.300;2023-03-23T07:05:32;100119.81;;;11.49;100.00
63111;BME280;49201;53.426;10.300;2023-03-23T07:07:58;100120.66;;;11.59;100.00
63111;BME280;49201;53.426;10.300;2023-03-23T07:10:34;100115.59;;;11.66;100.00
63111;BME280;49201;53.426;10.300;2023-03-23T07:13:00;100118.19;;;11.69;100.00
63111;BME280;49201;53.426;10.300;2023-03-23T07:15:29;100116.47;;;11.65;100.00
63111;BME280;49201;53.426;10.300;2023-03-23T07:17:56;100110.47;;;11.65;100.00
63111;BME280;49201;53.426;10.300;2023-03-23T07:20:29;100118.16;;;11.65;100.00
63111;BME280;49201;53.426;10.300;2023-03-23T07:22:55;100113.06;;;11.69;100.00
63111;BME280;49201;53.426;10.300;2023-03-23T07:25:35;100119.91;;;11.75;100.00
63111;BME280;49201;53.426;10.300;2023-03-23T07:28:02;100125.88;;;11.75;100.00
63111;BME280;49201;53.426;10.300;2023-03-23T07:30:28;100131.88;;;11.80;100.00
63111;BME280;49201;53.426;10.300;2023-03-23T07:32:57;100127.66;;;11.90;100.00
63111;BME280;49201;53.426;10.300;2023-03-23T07:35:24;100125.97;;;12.08;100.00
63111;BME280;49201;53.426;10.300;2023-03-23T07:38:03;100126.84;;;12.10;100.00
63111;BME280;49201;53.426;10.300;2023-03-23T07:40:30;100135.38;;;12.14;100.00
63111;BME280;49201;53.426;10.300;2023-03-23T07:43:02;100136.25;;;12.19;100.00
63111;BME280;49201;53.426;10.300;2023-03-23T07:45:48;100143.09;;;12.20;100.00
63111;BME280;49201;53.426;10.300;2023-03-23T07:48:15;100149.09;;;12.14;100.00
63111;BME280;49201;53.426;10.300;2023-03-23T07:50:40;100143.94;;;12.19;100.00
63111;BME280;49201;53.426;10.300;2023-03-23T07:53:09;100149.94;;;12.18;100.00
63111;BME280;49201;53.426;10.300;2023-03-23T07:55:36;100147.34;;;12.13;100.00
63111;BME280;49201;53.426;10.300;2023-03-23T07:58:21;100148.19;;;12.11;100.00
63111;BME280;49201;53.426;10.300;2023-03-23T08:00:52;100155.06;;;12.12;100.00
63111;BME280;49201;53.426;10.300;2023-03-23T08:03:18;100151.66;;;12.19;100.00
63111;BME280;49201;53.426;10.300;2023-03-23T08:05:53;100141.41;;;12.35;100.00
63111;BME280;49201;53.426;10.300;2023-03-23T08:08:41;100149.97;;;12.45;100.00
63111;BME280;49201;53.426;10.300;2023-03-23T08:11:26;100137.13;;;12.57;100.00
63111;BME280;49201;53.426;10.300;2023-03-23T08:13:52;100148.25;;;12.75;100.00
63111;BME280;49201;53.426;10.300;2023-03-23T08:16:36;100142.25;;;12.90;100.00
63111;BME280;49201;53.426;10.300;2023-03-23T08:19:15;100140.53;;;12.92;100.00
63111;BME280;49201;53.426;10.300;2023-03-23T08:21:46;100133.69;;;12.71;100.00
63111;BME280;49201;53.426;10.300;2023-03-23T08:24:16;100131.13;;;12.79;100.00
63111;BME280;49201;53.426;10.300;2023-03-23T08:26:44;100131.13;;;12.91;100.00
63111;BME280;49201;53.426;10.300;2023-03-23T08:29:28;100135.38;;;12.93;100.00
63111;BME280;49201;53.426;10.300;2023-03-23T08:32:20;100134.53;;;12.87;100.00
63111;BME280;49201;53.426;10.300;2023-03-23T08:35:04;100143.94;;;12.86;100.00
63111;BME280;49201;53.426;10.300;2023-03-23T08:37:55;100142.25;;;12.85;100.00
63111;BME280;49201;53.426;10.300;2023-03-23T08:40:41;100153.41;;;12.75;100.00
63111;BME280;49201;53.426;10.300;2023-03-23T08:43:28;100154.25;;;12.74;100.00
63111;BME280;49201;53.426;10.300;2023-03-23T08:46:09;100161.97;;;12.71;100.00
63111;BME280;49201;53.426;10.300;2023-03-23T08:49:05;100167.97;;;12.63;100.00
63111;BME280;49201;53.426;10.300;2023-03-23T08:52:02;100180.78;;;12.54;100.00
63111;BME280;49201;53.426;10.300;2023-03-23T08:54:47;100186.78;;;12.41;100.00
63111;BME280;49201;53.426;10.300;2023-03-23T08:57:47;100195.31;;;12.22;100.00
63111;BME280;49201;53.426;10.300;2023-03-23T09:00:22;100185.84;;;12.09;100.00
63111;BME280;49201;53.426;10.300;2023-03-23T09:03:10;100184.13;;;11.99;100.00
63111;BME280;49201;53.426;10.300;2023-03-23T09:06:07;100185.78;;;11.86;100.00
63111;BME280;49201;53.426;10.300;2023-03-23T09:08:37;100181.53;;;11.96;100.00
63111;BME280;49201;53.426;10.300;2023-03-23T09:11:04;100186.69;;;12.05;100.00
63111;BME280;49201;53.426;10.300;2023-03-23T09:13:30;100192.69;;;12.10;100.00
63111;BME280;49201;53.426;10.300;2023-03-23T09:15:56;100198.69;;;12.15;100.00
63111;BME280;49201;53.426;10.300;2023-03-23T09:18:23;100203.81;;;12.09;100.00
63111;BME280;49201;53.426;10.300;2023-03-23T09:20:50;100203.81;;;12.04;100.00
63111;BME280;49201;53.426;10.300;2023-03-23T09:23:17;100193.50;;;11.98;100.00
63111;BME280;49201;53.426;10.300;2023-03-23T09:25:42;100203.78;;;12.00;100.00
63111;BME280;49201;53.426;10.300;2023-03-23T09:28:08;100206.34;;;11.95;100.00
63111;BME280;49201;53.426;10.300;2023-03-23T09:30:35;100224.31;;;12.00;100.00
63111;BME280;49201;53.426;10.300;2023-03-23T09:33:03;100222.59;;;11.91;100.00
63111;BME280;49201;53.426;10.300;2023-03-23T09:35:30;100224.31;;;12.01;100.00
63111;BME280;49201;53.426;10.300;2023-03-23T09:37:57;100233.69;;;11.95;100.00
63111;BME280;49201;53.426;10.300;2023-03-23T09:40:32;100237.13;;;11.94;100.00
63111;BME280;49201;53.426;10.300;2023-03-23T09:51:32;100219.19;;;12.07;100.00
63111;BME280;49201;53.426;10.300;2023-03-23T09:56:50;100240.69;;;12.42;100.00
63111;BME280;49201;53.426;10.300;2023-03-23T09:59:22;100245.00;;;12.55;100.00
63111;BME280;49201;53.426;10.300;2023-03-23T10:01:57;100245.88;;;12.59;100.00
63111;BME280;49201;53.426;10.300;2023-03-23T10:04:31;100251.00;;;12.60;100.00
63111;BME280;49201;53.426;10.300;2023-03-23T10:07:18;100251.00;;;12.71;100.00
63111;BME280;49201;53.426;10.300;2023-03-23T10:09:47;100245.03;;;12.96;100.00
63111;BME280;49201;53.426;10.300;2023-03-23T10:12:27;100237.13;;;14.00;100.00
63111;BME280;49201;53.426;10.300;2023-03-23T10:15:33;100236.13;;;14.34;100.00
63111;BME280;49201;53.426;10.300;2023-03-23T10:18:13;100210.88;;;14.84;100.00
63111;BME280;49201;53.426;10.300;2023-03-23T10:25:55;100266.44;;;13.40;100.00
63111;BME280;49201;53.426;10.300;2023-03-23T10:28:38;100255.31;;;13.38;100.00
63111;BME280;49201;53.426;10.300;2023-03-23T10:31:09;100261.31;;;13.42;100.00
63111;BME280;49201;53.426;10.300;2023-03-23T10:33:39;100273.34;;;13.32;100.00
63111;BME280;49201;53.426;10.300;2023-03-23T10:36:28;100275.06;;;13.26;100.00
63111;BME280;49201;53.426;10.300;2023-03-23T10:39:10;100278.47;;;13.26;100.00
63111;BME280;49201;53.426;10.300;2023-03-23T10:41:37;100277.63;;;13.21;100.00
63111;BME280;49201;53.426;10.300;2023-03-23T10:44:17;100279.34;;;13.12;100.00
63111;BME280;49201;53.426;10.300;2023-03-23T10:49:23;100292.19;;;13.27;100.00
63111;BME280;49201;53.426;10.300;2023-03-23T10:57:25;100289.63;;;13.30;100.00
63111;BME280;49201;53.426;10.300;2023-03-23T10:59:58;100292.19;;;13.33;100.00
63111;BME280;49201;53.426;10.300;2023-03-23T11:02:24;100299.91;;;13.21;100.00
63111;BME280;49201;53.426;10.300;2023-03-23T11:04:59;100305.91;;;13.18;100.00
63111;BME280;49201;53.426;10.300;2023-03-23T11:07:28;100304.19;;;13.19;100.00
63111;BME280;49201;53.426;10.300;2023-03-23T11:09:56;100294.78;;;13.19;100.00
63111;BME280;49201;53.426;10.300;2023-03-23T11:12:24;100293.06;;;13.17;100.00
63111;BME280;49201;53.426;10.300;2023-03-23T11:14:49;100297.34;;;13.19;100.00
63111;BME280;49201;53.426;10.300;2023-03-23T11:17:26;100294.78;;;13.21;100.00
63111;BME280;49201;53.426;10.300;2023-03-23T11:19:52;100301.63;;;13.25;100.00
63111;BME280;49201;53.426;10.300;2023-03-23T11:22:27;100305.03;;;13.15;100.00
63111;BME280;49201;53.426;10.300;2023-03-23T11:24:55;100296.50;;;13.23;100.00
63111;BME280;49201;53.426;10.300;2023-03-23T11:27:23;100302.47;;;13.07;100.00
63111;BME280;49201;53.426;10.300;2023-03-23T11:29:55;100303.34;;;13.09;100.00
63111;BME280;49201;53.426;10.300;2023-03-23T11:32:30;100285.34;;;13.15;100.00
63111;BME280;49201;53.426;10.300;2023-03-23T11:35:00;100296.50;;;13.16;100.00
63111;BME280;49201;53.426;10.300;2023-03-23T11:37:41;100307.63;;;13.18;100.00
63111;BME280;49201;53.426;10.300;2023-03-23T11:42:41;100323.03;;;13.10;100.00
63111;BME280;49201;53.426;10.300;2023-03-23T11:50:44;100316.13;;;12.94;100.00
63111;BME280;49201;53.426;10.300;2023-03-23T11:53:33;100316.19;;;13.02;100.00
63111;BME280;49201;53.426;10.300;2023-03-23T11:56:30;100307.59;;;13.00;100.00
63111;BME280;49201;53.426;10.300;2023-03-23T11:58:58;100320.41;;;12.92;100.00
63111;BME280;49201;53.426;10.300;2023-03-23T12:07:14;100340.09;;;12.72;100.00
63111;BME280;49201;53.426;10.300;2023-03-23T12:10:02;100345.19;;;12.73;100.00
63111;BME280;49201;53.426;10.300;2023-03-23T12:13:03;100334.09;;;12.76;100.00
63111;BME280;49201;53.426;10.300;2023-03-23T12:16:00;100338.34;;;12.68;100.00
63111;BME280;49201;53.426;10.300;2023-03-23T12:18:38;100344.34;;;12.64;100.00
63111;BME280;49201;53.426;10.300;2023-03-23T12:26:37;100351.16;;;12.56;100.00
63111;BME280;49201;53.426;10.300;2023-03-23T12:37:21;100345.16;;;12.58;100.00
63111;BME280;49201;53.426;10.300;2023-03-23T12:39:53;100340.03;;;12.58;100.00
63111;BME280;49201;53.426;10.300;2023-03-23T12:45:06;100334.94;;;12.76;100.00
63111;BME280;49201;53.426;10.300;2023-03-23T12:47:46;100322.13;;;12.81;100.00
63111;BME280;49201;53.426;10.300;2023-03-23T12:50:36;100329.81;;;12.79;100.00
63111;BME280;49201;53.426;10.300;2023-03-23T12:53:22;100330.66;;;12.75;100.00
63111;BME280;49201;53.426;10.300;2023-03-23T12:58:48;100321.25;;;12.86;100.00
63111;BME280;49201;53.426;10.300;2023-03-23T13:01:28;100313.56;;;12.94;100.00
63111;BME280;49201;53.426;10.300;2023-03-23T13:03:58;100319.59;;;13.02;100.00
63111;BME280;49201;53.426;10.300;2023-03-23T13:06:35;100314.44;;;13.01;100.00
63111;BME280;49201;53.426;10.300;2023-03-23T13:11:49;100294.78;;;13.39;100.00
63111;BME280;49201;53.426;10.300;2023-03-23T13:14:35;100296.31;;;14.03;100.00
63111;BME280;49201;53.426;10.300;2023-03-23T13:17:20;100311.72;;;14.27;100.00
63111;BME280;49201;53.426;10.300;2023-03-23T13:22:42;100307.41;;;14.32;100.00
63111;BME280;49201;53.426;10.300;2023-03-23T13:25:17;100297.13;;;14.27;100.00
63111;BME280;49201;53.426;10.300;2023-03-23T13:27:44;100306.47;;;14.48;100.00
63111;BME280;49201;53.426;10.300;2023-03-23T13:30:21;100299.72;;;14.11;100.00
63111;BME280;49201;53.426;10.300;2023-03-23T13:32:48;100301.34;;;14.37;100.00
63111;BME280;49201;53.426;10.300;2023-03-23T13:35:17;100285.75;;;14.69;100.00
63111;BME280;49201;53.426;10.300;2023-03-23T13:37:46;100287.59;;;14.43;100.00
63111;BME280;49201;53.426;10.300;2023-03-23T13:42:53;100257.97;;;15.04;100.00
63111;BME280;49201;53.426;10.300;2023-03-23T13:51:00;100198.69;;;15.84;100.00
63111;BME280;49201;53.426;10.300;2023-03-23T13:53:42;100214.81;;;16.01;100.00
63111;BME280;49201;53.426;10.300;2023-03-23T13:56:35;100220.34;;;15.72;100.00
63111;BME280;49201;53.426;10.300;2023-03-23T13:59:46;100239.31;;;15.70;100.00
63111;BME280;49201;53.426;10.300;2023-03-23T14:02:32;100289.91;;;14.86;100.00
63111;BME280;49201;53.426;10.300;2023-03-23T14:05:24;100311.53;;;14.66;100.00
63111;BME280;49201;53.426;10.300;2023-03-23T14:08:02;100275.19;;;15.00;100.00
63111;BME280;49201;53.426;10.300;2023-03-23T14:10:36;100220.59;;;15.48;100.00
63111;BME280;49201;53.426;10.300;2023-03-23T14:13:05;100212.91;;;15.47;100.00
63111;BME280;49201;53.426;10.300;2023-03-23T14:15:41;100228.91;;;15.77;100.00
63111;BME280;49201;53.426;10.300;2023-03-23T14:18:14;100170.00;;;15.32;100.00
63111;BME280;49201;53.426;10.300;2023-03-23T14:20:42;100189.41;;;15.69;100.00
63111;BME280;49201;53.426;10.300;2023-03-23T14:23:18;100172.69;;;15.99;100.00
63111;BME280;49201;53.426;10.300;2023-03-23T14:25:54;100129.63;;;15.99;100.00
63111;BME280;49201;53.426;10.300;2023-03-23T14:28:21;100161.09;;;16.25;100.00
63111;BME280;49201;53.426;10.300;2023-03-23T14:30:52;100115.16;;;15.88;100.00